^^
Dati Storici Stazione
Giornaliero Riassunto Giugno 24, 2021 Unita' di misura:  Entrambe    Inglesi   Metriche
Giornaliero Settimanale Mensile Annuale
  Max: Min: Media:
Temperatura: 104.6 °F /  40.3 °C 79.8 °F /  26.6 °C 91.9 °F /  33.3 °C
Punto di Rugiada: 60.4 °F /  15.8 °C 48.7 °F /  9.3 °C 54.5 °F /  12.5 °C
Umidita': 46% 15.8% 30%
Velocita' Vento: 10.8mph /  17.4km/h - 2.7mph /  4.3km/h
Raffica di Vento: 20mph /  32.2km/h - -
Direzione Vento- - SSW
Pressione: 30.07 in /  1018.2 hPa 29.97 in /  1014.8 hPa -
Precipitazioni: 0.00 in /  0 mm    
 
 
Tabelle Dati per il Giugno 24, 2021
Ora Temperatura Punto Rugiada Pressione Dir.Vento Vel.Vento Raff.Vento Umidita' Rainfall Rate (Orario) Solare Condizioni
00:04 85 °F /  29.4 °C 54.2 °F /  12.3 °C 30.01in /  1016.1hPa SSW 2.6mph /  4.2km/h 5mph /  8km/h 35% 0.00in /  0mm W/m2
00:09 84.6 °F /  29.2 °C 53.9 °F /  12.2 °C 30.01in /  1016.1hPa SSW 2.1mph /  3.4km/h 5mph /  8km/h 35% 0.00in /  0mm W/m2
00:14 84.3 °F /  29.1 °C 53.7 °F /  12.1 °C 30.01in /  1016.1hPa SSW 2.2mph /  3.5km/h 5mph /  8km/h 35% 0.00in /  0mm W/m2
00:19 84 °F /  28.9 °C 54.1 °F /  12.3 °C 30.01in /  1016.1hPa South 2.5mph /  4km/h 6mph /  9.7km/h 36% 0.00in /  0mm W/m2
00:24 83.6 °F /  28.7 °C 53.8 °F /  12.1 °C 30.01in /  1016.1hPa South 2.5mph /  4km/h 6mph /  9.7km/h 36% 0.00in /  0mm W/m2
00:29 83.4 °F /  28.6 °C 53.6 °F /  12 °C 30.01in /  1016.1hPa SSW 2.5mph /  4km/h 7mph /  11.3km/h 36% 0.00in /  0mm W/m2
00:34 83.3 °F /  28.5 °C 53.6 °F /  12 °C 30.01in /  1016.1hPa SSW 3.8mph /  6.1km/h 7mph /  11.3km/h 36% 0.00in /  0mm W/m2
00:39 83.3 °F /  28.5 °C 52.9 °F /  11.6 °C 30.01in /  1016.1hPa South 2.7mph /  4.3km/h 7mph /  11.3km/h 35.1% 0.00in /  0mm W/m2
00:44 83.3 °F /  28.5 °C 52.6 °F /  11.4 °C 30.01in /  1016.1hPa SSW 3.7mph /  6km/h 7mph /  11.3km/h 34.8% 0.00in /  0mm W/m2
00:49 83.9 °F /  28.8 °C 52.5 °F /  11.4 °C 30.01in /  1016.1hPa SSW 4.2mph /  6.8km/h 7mph /  11.3km/h 34% 0.00in /  0mm W/m2
00:54 84.5 °F /  29.2 °C 52.5 °F /  11.4 °C 30.01in /  1016.1hPa SSW 5mph /  8km/h 9.2mph /  14.8km/h 33.4% 0.00in /  0mm W/m2
00:59 84.8 °F /  29.3 °C 52.5 °F /  11.4 °C 30.01in /  1016.1hPa SSW 4.6mph /  7.4km/h 9.2mph /  14.8km/h 33% 0.00in /  0mm W/m2
01:04 84.9 °F /  29.4 °C 52.6 °F /  11.4 °C 30.01in /  1016.1hPa South 3.1mph /  5km/h 8mph /  12.9km/h 33% 0.00in /  0mm W/m2
01:09 84.5 °F /  29.2 °C 52.9 °F /  11.6 °C 30.00in /  1015.8hPa SSW 3.4mph /  5.5km/h 7mph /  11.3km/h 33.9% 0.00in /  0mm W/m2
01:14 84.5 °F /  29.2 °C 53.1 °F /  11.7 °C 30.00in /  1015.8hPa SSW 5.1mph /  8.2km/h 10.4mph /  16.7km/h 34% 0.00in /  0mm W/m2
01:19 84.7 °F /  29.3 °C 53.3 °F /  11.8 °C 30.00in /  1015.8hPa SSW 4.7mph /  7.6km/h 10mph /  16.1km/h 34% 0.00in /  0mm W/m2
01:24 84.8 °F /  29.3 °C 53.4 °F /  11.9 °C 30.01in /  1016.1hPa SSW 4.1mph /  6.6km/h 7mph /  11.3km/h 34.1% 0.00in /  0mm W/m2
01:29 84.8 °F /  29.3 °C 54.1 °F /  12.3 °C 30.01in /  1016.1hPa SSW 4.5mph /  7.2km/h 7mph /  11.3km/h 35% 0.00in /  0mm W/m2
01:34 84.7 °F /  29.3 °C 54 °F /  12.2 °C 30.01in /  1016.1hPa SSW 3mph /  4.8km/h 7mph /  11.3km/h 35.1% 0.00in /  0mm W/m2
01:39 84.4 °F /  29.1 °C 54.4 °F /  12.4 °C 30.00in /  1015.8hPa SSW 2.7mph /  4.3km/h 6mph /  9.7km/h 36% 0.00in /  0mm W/m2
01:44 84.2 °F /  29 °C 54.4 °F /  12.4 °C 30.00in /  1015.8hPa SSW 3.3mph /  5.3km/h 6mph /  9.7km/h 36% 0.00in /  0mm W/m2
01:49 84 °F /  28.9 °C 54.9 °F /  12.7 °C 30.00in /  1015.8hPa SSW 2.6mph /  4.2km/h 6mph /  9.7km/h 37% 0.00in /  0mm W/m2
01:54 83.6 °F /  28.7 °C 54.8 °F /  12.7 °C 30.00in /  1015.8hPa SSW 4.2mph /  6.8km/h 8.1mph /  13km/h 37.3% 0.00in /  0mm W/m2
01:59 83.5 °F /  28.6 °C 55.2 °F /  12.9 °C 30.00in /  1015.8hPa SSW 3.7mph /  6km/h 8.1mph /  13km/h 38% 0.00in /  0mm W/m2
02:04 83.5 °F /  28.6 °C 55.2 °F /  12.9 °C 30.00in /  1015.8hPa South 2.3mph /  3.7km/h 7mph /  11.3km/h 38% 0.00in /  0mm W/m2
02:09 83.2 °F /  28.4 °C 55.2 °F /  12.9 °C 30.00in /  1015.8hPa South 2.2mph /  3.5km/h 6mph /  9.7km/h 38.3% 0.00in /  0mm W/m2
02:14 82.9 °F /  28.3 °C 55.4 °F /  13 °C 30.00in /  1015.8hPa SSW 2.5mph /  4km/h 6mph /  9.7km/h 39% 0.00in /  0mm W/m2
02:19 82.9 °F /  28.3 °C 55.4 °F /  13 °C 30.00in /  1015.8hPa SSW 2.9mph /  4.7km/h 5mph /  8km/h 39% 0.00in /  0mm W/m2
02:24 82.9 °F /  28.3 °C 55.4 °F /  13 °C 30.00in /  1015.8hPa SSW 2.9mph /  4.7km/h 5mph /  8km/h 39% 0.00in /  0mm W/m2
02:29 83 °F /  28.3 °C 55.5 °F /  13.1 °C 30.00in /  1015.8hPa South 2.3mph /  3.7km/h 5mph /  8km/h 39% 0.00in /  0mm W/m2
02:34 82.7 °F /  28.2 °C 55.6 °F /  13.1 °C 30.00in /  1015.8hPa South 1mph /  1.6km/h 5mph /  8km/h 39.5% 0.00in /  0mm W/m2
02:39 82.3 °F /  27.9 °C 55.8 °F /  13.2 °C 30.00in /  1015.8hPa South 1.9mph /  3.1km/h 4mph /  6.4km/h 40.3% 0.00in /  0mm W/m2
02:44 82.3 °F /  27.9 °C 56.3 °F /  13.5 °C 30.00in /  1015.8hPa SSW 0.9mph /  1.4km/h 4mph /  6.4km/h 41% 0.00in /  0mm W/m2
02:49 82.4 °F /  28 °C 56.8 °F /  13.8 °C 30.00in /  1015.8hPa WSW 0.7mph /  1.1km/h 3mph /  4.8km/h 41.6% 0.00in /  0mm W/m2
02:54 82.8 °F /  28.2 °C 57.3 °F /  14.1 °C 30.00in /  1015.8hPa WSW 0.2mph /  0.3km/h 2.3mph /  3.7km/h 41.8% 0.00in /  0mm W/m2
02:59 83 °F /  28.3 °C 57.5 °F /  14.2 °C 30.00in /  1015.8hPa WSW 0.3mph /  0.5km/h 2.3mph /  3.7km/h 42% 0.00in /  0mm W/m2
03:04 83.4 °F /  28.6 °C 57.5 °F /  14.2 °C 30.00in /  1015.8hPa SSW 1.9mph /  3.1km/h 4mph /  6.4km/h 41.4% 0.00in /  0mm W/m2
03:09 83.4 °F /  28.6 °C 57.2 °F /  14 °C 30.00in /  1015.8hPa SSW 1.4mph /  2.3km/h 3.5mph /  5.6km/h 41% 0.00in /  0mm W/m2
03:14 83.8 °F /  28.8 °C 57.6 °F /  14.2 °C 30.00in /  1015.8hPa SW 0.5mph /  0.8km/h 3mph /  4.8km/h 41% 0.00in /  0mm W/m2
03:19 84.6 °F /  29.2 °C 57.7 °F /  14.3 °C 30.00in /  1015.8hPa WSW 2.4mph /  3.9km/h 10.4mph /  16.7km/h 40.1% 0.00in /  0mm W/m2
03:24 85.1 °F /  29.5 °C 57.4 °F /  14.1 °C 30.00in /  1015.8hPa WSW 2.6mph /  4.2km/h 10mph /  16.1km/h 39% 0.00in /  0mm W/m2
03:29 85.1 °F /  29.5 °C 57.3 °F /  14.1 °C 30.00in /  1015.8hPa WSW 2.7mph /  4.3km/h 7mph /  11.3km/h 38.8% 0.00in /  0mm W/m2
03:34 85 °F /  29.4 °C 57.3 °F /  14.1 °C 30.00in /  1015.8hPa WSW 2.4mph /  3.9km/h 7mph /  11.3km/h 39% 0.00in /  0mm W/m2
03:39 85.1 °F /  29.5 °C 58 °F /  14.4 °C 30.00in /  1015.8hPa SW 2.1mph /  3.4km/h 5mph /  8km/h 40% 0.00in /  0mm W/m2
03:44 84.9 °F /  29.4 °C 58.2 °F /  14.6 °C 29.99in /  1015.5hPa SW 0.4mph /  0.6km/h 4mph /  6.4km/h 40.4% 0.00in /  0mm W/m2
03:49 84.5 °F /  29.2 °C 58.2 °F /  14.6 °C 29.99in /  1015.5hPa SW 0.3mph /  0.5km/h 2.3mph /  3.7km/h 41% 0.00in /  0mm W/m2
03:54 84.3 °F /  29.1 °C 58.2 °F /  14.6 °C 29.99in /  1015.5hPa SSW 0.1mph /  0.2km/h 2mph /  3.2km/h 41.3% 0.00in /  0mm W/m2
03:59 84 °F /  28.9 °C 58.4 °F /  14.7 °C 29.99in /  1015.5hPa Calm   1.2mph /  1.9km/h 42% 0.00in /  0mm W/m2
04:04 83.5 °F /  28.6 °C 58 °F /  14.4 °C 29.99in /  1015.5hPa SSW 0.7mph /  1.1km/h 2.3mph /  3.7km/h 42% 0.00in /  0mm W/m2
04:09 83.1 °F /  28.4 °C 57.6 °F /  14.2 °C 29.99in /  1015.5hPa SSE 0.1mph /  0.2km/h 2mph /  3.2km/h 42% 0.00in /  0mm W/m2
04:14 82.7 °F /  28.2 °C 57.3 °F /  14.1 °C 29.98in /  1015.1hPa SE 0.1mph /  0.2km/h 2.3mph /  3.7km/h 42% 0.00in /  0mm W/m2
04:19 82.2 °F /  27.9 °C 57.5 °F /  14.2 °C 29.98in /  1015.1hPa Calm   1.2mph /  1.9km/h 43% 0.00in /  0mm W/m2
04:24 81.7 °F /  27.6 °C 57.1 °F /  13.9 °C 29.98in /  1015.1hPa SSE 0.1mph /  0.2km/h 2mph /  3.2km/h 43.2% 0.00in /  0mm W/m2
04:29 81.3 °F /  27.4 °C 57.3 °F /  14.1 °C 29.98in /  1015.1hPa SE 0.2mph /  0.3km/h 2mph /  3.2km/h 44% 0.00in /  0mm W/m2
04:34 81 °F /  27.2 °C 57.3 °F /  14.1 °C 29.98in /  1015.1hPa SE 0.1mph /  0.2km/h 1.2mph /  1.9km/h 44.5% 0.00in /  0mm W/m2
04:39 80.8 °F /  27.1 °C 57.5 °F /  14.2 °C 29.98in /  1015.1hPa Calm   1mph /  1.6km/h 45% 0.00in /  0mm W/m2
04:44 80.7 °F /  27.1 °C 57.4 °F /  14.1 °C 29.98in /  1015.1hPa SSE 0.3mph /  0.5km/h 2.3mph /  3.7km/h 45% 0.00in /  0mm W/m2
04:49 80.4 °F /  26.9 °C 57.1 °F /  13.9 °C 29.98in /  1015.1hPa SE 0.6mph /  1km/h 2.3mph /  3.7km/h 45% 0.00in /  0mm W/m2
04:54 80 °F /  26.7 °C 57.2 °F /  14 °C 29.98in /  1015.1hPa SSE 1.3mph /  2.1km/h 4mph /  6.4km/h 45.7% 0.00in /  0mm W/m2
04:59 79.9 °F /  26.6 °C 57.3 °F /  14.1 °C 29.98in /  1015.1hPa South 1.4mph /  2.3km/h 4mph /  6.4km/h 46% 0.00in /  0mm W/m2
05:04 80 °F /  26.7 °C 57.4 °F /  14.1 °C 29.98in /  1015.1hPa SSW 0.7mph /  1.1km/h 3mph /  4.8km/h 46% 0.00in /  0mm W/m2
05:09 80.2 °F /  26.8 °C 56.9 °F /  13.8 °C 29.98in /  1015.1hPa South 0.2mph /  0.3km/h 2mph /  3.2km/h 45% 0.00in /  0mm W/m2
05:14 80.3 °F /  26.8 °C 57 °F /  13.9 °C 29.98in /  1015.1hPa Calm   1mph /  1.6km/h 45% 0.00in /  0mm W/m2
05:19 80.4 °F /  26.9 °C 57.1 °F /  13.9 °C 29.98in /  1015.1hPa Calm     45% 0.00in /  0mm W/m2
05:24 80.2 °F /  26.8 °C 57 °F /  13.9 °C 29.98in /  1015.1hPa SSE 0.8mph /  1.3km/h 2mph /  3.2km/h 45.1% 0.00in /  0mm W/m2
05:29 79.8 °F /  26.6 °C 57.2 °F /  14 °C 29.98in /  1015.1hPa SSE 1.1mph /  1.8km/h 3.5mph /  5.6km/h 46% 0.00in /  0mm W/m2
05:34 79.8 °F /  26.6 °C 57 °F /  13.9 °C 29.98in /  1015.1hPa SSW 1.8mph /  2.9km/h 5mph /  8km/h 45.8% 0.00in /  0mm W/m2
05:39 80.8 °F /  27.1 °C 56.5 °F /  13.6 °C 29.97in /  1014.8hPa SSE 2.7mph /  4.3km/h 5mph /  8km/h 43.4% 0.00in /  0mm W/m2
05:44 82.1 °F /  27.8 °C 56.4 °F /  13.6 °C 29.97in /  1014.8hPa SSW 3.7mph /  6km/h 8.1mph /  13km/h 41.5% 0.00in /  0mm W/m2
05:49 83.6 °F /  28.7 °C 56.2 °F /  13.4 °C 29.98in /  1015.1hPa WSW 3.7mph /  6km/h 9.2mph /  14.8km/h 39.3% 0.00in /  0mm W/m2
05:54 85.4 °F /  29.7 °C 53.7 °F /  12.1 °C 29.98in /  1015.1hPa NNE 3.7mph /  6km/h 10.4mph /  16.7km/h 33.9% 0.00in /  0mm W/m2
05:59 87.5 °F /  30.8 °C 52.6 °F /  11.4 °C 29.99in /  1015.5hPa West 2.4mph /  3.9km/h 10mph /  16.1km/h 30.5% 0.00in /  0mm W/m2
06:04 88.6 °F /  31.4 °C 53.2 °F /  11.8 °C 29.99in /  1015.5hPa WSW 2.8mph /  4.5km/h 6mph /  9.7km/h 30% 0.00in /  0mm W/m2
06:09 88.7 °F /  31.5 °C 52.7 °F /  11.5 °C 29.99in /  1015.5hPa NNW 1.8mph /  2.9km/h 4mph /  6.4km/h 29.3% 0.00in /  0mm W/m2
06:14 88.9 °F /  31.6 °C 52.9 °F /  11.6 °C 30.00in /  1015.8hPa West 2.3mph /  3.7km/h 4mph /  6.4km/h 29.5% 0.00in /  0mm W/m2
06:19 88.6 °F /  31.4 °C 53.2 °F /  11.8 °C 30.01in /  1016.1hPa NE 3.4mph /  5.5km/h 5mph /  8km/h 30% 0.00in /  0mm W/m2
06:24 88.5 °F /  31.4 °C 53.3 °F /  11.8 °C 30.01in /  1016.1hPa WNW 2.2mph /  3.5km/h 5mph /  8km/h 30.2% 0.00in /  0mm W/m2
06:29 88.7 °F /  31.5 °C 53.5 °F /  11.9 °C 30.01in /  1016.1hPa WSW 3.6mph /  5.8km/h 9.2mph /  14.8km/h 30.2% 0.00in /  0mm W/m2
06:34 88.8 °F /  31.6 °C 54 °F /  12.2 °C 30.01in /  1016.1hPa West 0.8mph /  1.3km/h 9mph /  14.5km/h 30.6% 0.00in /  0mm W/m2
06:39 88.5 °F /  31.4 °C 54.8 °F /  12.7 °C 30.01in /  1016.1hPa NNE 0.3mph /  0.5km/h 3.5mph /  5.6km/h 31.9% 0.00in /  0mm W/m2
06:44 88.1 °F /  31.2 °C 54.5 °F /  12.5 °C 30.01in /  1016.1hPa NNE 0.7mph /  1.1km/h 3mph /  4.8km/h 32% 0.00in /  0mm W/m2
06:49 87.7 °F /  30.9 °C 54.5 °F /  12.5 °C 30.01in /  1016.1hPa Calm   2mph /  3.2km/h 32.4% 0.00in /  0mm W/m2
06:54 87.4 °F /  30.8 °C 55.1 °F /  12.8 °C 30.01in /  1016.1hPa WSW 1.5mph /  2.4km/h 5mph /  8km/h 33.4% 0.00in /  0mm W/m2
06:59 87.2 °F /  30.7 °C 55.4 °F /  13 °C 30.01in /  1016.1hPa WSW 1.3mph /  2.1km/h 5mph /  8km/h 34% 0.00in /  0mm W/m2
07:04 87 °F /  30.6 °C 56 °F /  13.3 °C 30.00in /  1015.8hPa West 0.1mph /  0.2km/h 3mph /  4.8km/h 35% 0.00in /  0mm W/m2
07:09 86.7 °F /  30.4 °C 56.2 °F /  13.4 °C 30.00in /  1015.8hPa West 0.1mph /  0.2km/h 1.2mph /  1.9km/h 35.6% 0.00in /  0mm W/m2
07:14 86.5 °F /  30.3 °C 56.6 °F /  13.7 °C 30.00in /  1015.8hPa Calm   1.2mph /  1.9km/h 36.2% 0.00in /  0mm W/m2
07:19 86.8 °F /  30.4 °C 56.9 °F /  13.8 °C 30.00in /  1015.8hPa NE 1.1mph /  1.8km/h 4mph /  6.4km/h 36.3% 0.00in /  0mm W/m2
07:24 86.5 °F /  30.3 °C 57.6 °F /  14.2 °C 30.00in /  1015.8hPa ENE 2.1mph /  3.4km/h 4mph /  6.4km/h 37.7% 0.00in /  0mm W/m2
07:29 86.3 °F /  30.2 °C 57.8 °F /  14.3 °C 30.00in /  1015.8hPa ESE 1.4mph /  2.3km/h 4mph /  6.4km/h 38.2% 0.00in /  0mm W/m2
07:34 86.9 °F /  30.5 °C 58.6 °F /  14.8 °C 30.00in /  1015.8hPa SE 0.7mph /  1.1km/h 4mph /  6.4km/h 38.5% 0.00in /  0mm W/m2
07:39 87.6 °F /  30.9 °C 58.4 °F /  14.7 °C 30.00in /  1015.8hPa SSE 0.7mph /  1.1km/h 4mph /  6.4km/h 37.3% 0.00in /  0mm W/m2
07:44 88.5 °F /  31.4 °C 58.4 °F /  14.7 °C 30.00in /  1015.8hPa SSE 0.7mph /  1.1km/h 4mph /  6.4km/h 36.4% 0.00in /  0mm W/m2
07:49 89.1 °F /  31.7 °C 58.9 °F /  14.9 °C 30.00in /  1015.8hPa SSE 2.2mph /  3.5km/h 5mph /  8km/h 36.3% 0.00in /  0mm W/m2
07:54 89.3 °F /  31.8 °C 59.5 °F /  15.3 °C 30.00in /  1015.8hPa SSW 1.6mph /  2.6km/h 5mph /  8km/h 37% 0.00in /  0mm W/m2
07:59 89.7 °F /  32.1 °C 59.6 °F /  15.3 °C 30.01in /  1016.1hPa SSE 1.8mph /  2.9km/h 5mph /  8km/h 36.6% 0.00in /  0mm W/m2
08:04 90.1 °F /  32.3 °C 59.6 °F /  15.3 °C 30.01in /  1016.1hPa South 2mph /  3.2km/h 5mph /  8km/h 36% 0.00in /  0mm W/m2
08:09 90.4 °F /  32.4 °C 59.3 °F /  15.2 °C 30.01in /  1016.1hPa SSW 2.4mph /  3.9km/h 5mph /  8km/h 35.5% 0.00in /  0mm W/m2
08:14 90.9 °F /  32.7 °C 59.5 °F /  15.3 °C 30.01in /  1016.1hPa South 1.4mph /  2.3km/h 5mph /  8km/h 35% 0.00in /  0mm W/m2
08:19 91.8 °F /  33.2 °C 58.6 °F /  14.8 °C 30.01in /  1016.1hPa SSW 1.9mph /  3.1km/h 4mph /  6.4km/h 33% 0.00in /  0mm W/m2
08:24 92.6 °F /  33.7 °C 58.7 °F /  14.8 °C 30.01in /  1016.1hPa SSE 1.2mph /  1.9km/h 4mph /  6.4km/h 32.4% 0.00in /  0mm W/m2
08:29 93.4 °F /  34.1 °C 58.7 °F /  14.8 °C 30.01in /  1016.1hPa SSE 1.4mph /  2.3km/h 4mph /  6.4km/h 31.4% 0.00in /  0mm W/m2
08:34 94.2 °F /  34.6 °C 58.9 °F /  14.9 °C 30.01in /  1016.1hPa South 1.3mph /  2.1km/h 4mph /  6.4km/h 31% 0.00in /  0mm W/m2
08:39 94.7 °F /  34.8 °C 59.2 °F /  15.1 °C 30.02in /  1016.5hPa South 1.6mph /  2.6km/h 4mph /  6.4km/h 30.8% 0.00in /  0mm W/m2
08:44 95.1 °F /  35.1 °C 59.1 °F /  15.1 °C 30.02in /  1016.5hPa SSW 1mph /  1.6km/h 4mph /  6.4km/h 30.3% 0.00in /  0mm W/m2
08:49 96.1 °F /  35.6 °C 60 °F /  15.6 °C 30.02in /  1016.5hPa South 0.2mph /  0.3km/h 3.5mph /  5.6km/h 30.4% 0.00in /  0mm W/m2
08:54 97.4 °F /  36.3 °C 59.9 °F /  15.5 °C 30.02in /  1016.5hPa SSE 0.8mph /  1.3km/h 3.5mph /  5.6km/h 29.1% 0.00in /  0mm W/m2
08:59 98.3 °F /  36.8 °C 60.4 °F /  15.8 °C 30.02in /  1016.5hPa East 0.5mph /  0.8km/h 3.5mph /  5.6km/h 28.8% 0.00in /  0mm W/m2
09:04 98.9 °F /  37.2 °C 58.6 °F /  14.8 °C 30.02in /  1016.5hPa WNW 1.5mph /  2.4km/h 3.5mph /  5.6km/h 26.6% 0.00in /  0mm W/m2
09:09 99.6 °F /  37.6 °C 57.2 °F /  14 °C 30.02in /  1016.5hPa West 1.2mph /  1.9km/h 6mph /  9.7km/h 24.7% 0.00in /  0mm W/m2
09:14 99.9 °F /  37.7 °C 54 °F /  12.2 °C 30.03in /  1016.8hPa West 3.1mph /  5km/h 7mph /  11.3km/h 21.8% 0.00in /  0mm W/m2
09:19 100.1 °F /  37.8 °C 50.9 °F /  10.5 °C 30.03in /  1016.8hPa West 4.1mph /  6.6km/h 10.4mph /  16.7km/h 19.4% 0.00in /  0mm W/m2
09:24 100.3 °F /  37.9 °C 49.4 °F /  9.7 °C 30.03in /  1016.8hPa West 5.7mph /  9.2km/h 11.5mph /  18.5km/h 18.2% 0.00in /  0mm W/m2
09:29 100.2 °F /  37.9 °C 49.6 °F /  9.8 °C 30.03in /  1016.8hPa West 5.9mph /  9.5km/h 12mph /  19.3km/h 18.4% 0.00in /  0mm W/m2
09:34 100.4 °F /  38 °C 49.8 °F /  9.9 °C 30.03in /  1016.8hPa West 6.3mph /  10.1km/h 12mph /  19.3km/h 18.4% 0.00in /  0mm W/m2
09:39 100.5 °F /  38.1 °C 49.5 °F /  9.7 °C 30.04in /  1017.2hPa West 4.5mph /  7.2km/h 12mph /  19.3km/h 18.2% 0.00in /  0mm W/m2
09:44 100.5 °F /  38.1 °C 50.5 °F /  10.3 °C 30.04in /  1017.2hPa West 5.3mph /  8.5km/h 10.4mph /  16.7km/h 18.8% 0.00in /  0mm W/m2
09:49 100.7 °F /  38.2 °C 50.9 °F /  10.5 °C 30.04in /  1017.2hPa West 6.6mph /  10.6km/h 12mph /  19.3km/h 19% 0.00in /  0mm W/m2
09:54 100.6 °F /  38.1 °C 50.8 °F /  10.4 °C 30.04in /  1017.2hPa West 4.9mph /  7.9km/h 12mph /  19.3km/h 19% 0.00in /  0mm W/m2
09:59 100.9 °F /  38.3 °C 50.3 °F /  10.2 °C 30.04in /  1017.2hPa West 4.1mph /  6.6km/h 12mph /  19.3km/h 18.5% 0.00in /  0mm W/m2
10:04 101.2 °F /  38.4 °C 50.9 °F /  10.5 °C 30.04in /  1017.2hPa West 3.7mph /  6km/h 12mph /  19.3km/h 18.7% 0.00in /  0mm W/m2
10:09 101.2 °F /  38.4 °C 49.9 °F /  9.9 °C 30.04in /  1017.2hPa NNW 4.1mph /  6.6km/h 8.1mph /  13km/h 18% 0.00in /  0mm W/m2
10:14 101.1 °F /  38.4 °C 49.8 °F /  9.9 °C 30.04in /  1017.2hPa North 3.6mph /  5.8km/h 9.2mph /  14.8km/h 18% 0.00in /  0mm W/m2
10:19 101.1 °F /  38.4 °C 49.9 °F /  9.9 °C 30.04in /  1017.2hPa NNW 3.2mph /  5.1km/h 11mph /  17.7km/h 18.1% 0.00in /  0mm W/m2
10:24 100.4 °F /  38 °C 54 °F /  12.2 °C 30.04in /  1017.2hPa NE 5.3mph /  8.5km/h 14mph /  22.5km/h 21.5% 0.00in /  0mm W/m2
10:29 99.6 °F /  37.6 °C 56.5 °F /  13.6 °C 30.04in /  1017.2hPa NE 5.7mph /  9.2km/h 14mph /  22.5km/h 24.1% 0.00in /  0mm W/m2
10:34 99.2 °F /  37.3 °C 57.2 °F /  14 °C 30.04in /  1017.2hPa NE 5.2mph /  8.4km/h 12mph /  19.3km/h 25% 0.00in /  0mm W/m2
10:39 99.2 °F /  37.3 °C 57.2 °F /  14 °C 30.04in /  1017.2hPa NE 4.9mph /  7.9km/h 10.4mph /  16.7km/h 25% 0.00in /  0mm W/m2
10:44 99.1 °F /  37.3 °C 56.7 °F /  13.7 °C 30.04in /  1017.2hPa NE 5mph /  8km/h 10mph /  16.1km/h 24.6% 0.00in /  0mm W/m2
10:49 99.5 °F /  37.5 °C 55.6 °F /  13.1 °C 30.05in /  1017.5hPa NE 3.7mph /  6km/h 9.2mph /  14.8km/h 23.4% 0.00in /  0mm W/m2
10:54 99.7 °F /  37.6 °C 54.9 °F /  12.7 °C 30.05in /  1017.5hPa NE 2.3mph /  3.7km/h 9mph /  14.5km/h 22.7% 0.00in /  0mm W/m2
10:59 100.1 °F /  37.8 °C 54.2 °F /  12.3 °C 30.05in /  1017.5hPa NE 3.2mph /  5.1km/h 10mph /  16.1km/h 21.8% 0.00in /  0mm W/m2
11:04 100.5 °F /  38.1 °C 53.5 °F /  11.9 °C 30.05in /  1017.5hPa NE 3.7mph /  6km/h 11mph /  17.7km/h 21% 0.00in /  0mm W/m2
11:09 100.7 °F /  38.2 °C 53.1 °F /  11.7 °C 30.05in /  1017.5hPa NNE 4.2mph /  6.8km/h 13mph /  20.9km/h 20.6% 0.00in /  0mm W/m2
11:14 100.7 °F /  38.2 °C 53.6 °F /  12 °C 30.05in /  1017.5hPa NE 3mph /  4.8km/h 13mph /  20.9km/h 21% 0.00in /  0mm W/m2
11:19 101 °F /  38.3 °C 53.6 °F /  12 °C 30.05in /  1017.5hPa NE 3.9mph /  6.3km/h 8.1mph /  13km/h 20.8% 0.00in /  0mm W/m2
11:24 101.2 °F /  38.4 °C 53.6 °F /  12 °C 30.05in /  1017.5hPa NE 3.7mph /  6km/h 11mph /  17.7km/h 20.7% 0.00in /  0mm W/m2
11:29 101.5 °F /  38.6 °C 53.6 °F /  12 °C 30.05in /  1017.5hPa NE 4.2mph /  6.8km/h 12mph /  19.3km/h 20.5% 0.00in /  0mm W/m2
11:34 101.7 °F /  38.7 °C 53.3 °F /  11.8 °C 30.05in /  1017.5hPa NE 4.5mph /  7.2km/h 12mph /  19.3km/h 20.2% 0.00in /  0mm W/m2
11:39 101.8 °F /  38.8 °C 53.2 °F /  11.8 °C 30.05in /  1017.5hPa NE 2.3mph /  3.7km/h 10mph /  16.1km/h 20% 0.00in /  0mm W/m2
11:44 102.4 °F /  39.1 °C 52.2 °F /  11.2 °C 30.05in /  1017.5hPa North 3.9mph /  6.3km/h 10mph /  16.1km/h 19% 0.00in /  0mm W/m2
11:49 102.8 °F /  39.3 °C 50.5 °F /  10.3 °C 30.05in /  1017.5hPa WNW 4.1mph /  6.6km/h 10.4mph /  16.7km/h 17.6% 0.00in /  0mm W/m2
11:54 102.7 °F /  39.3 °C 50.4 °F /  10.2 °C 30.05in /  1017.5hPa West 5.7mph /  9.2km/h 12mph /  19.3km/h 17.5% 0.00in /  0mm W/m2
11:59 103.2 °F /  39.6 °C 50.5 °F /  10.3 °C 30.05in /  1017.5hPa West 4.4mph /  7.1km/h 12mph /  19.3km/h 17.4% 0.00in /  0mm W/m2
12:04 103.7 °F /  39.8 °C 50.6 °F /  10.3 °C 30.05in /  1017.5hPa WNW 4.3mph /  6.9km/h 10.4mph /  16.7km/h 17.2% 0.00in /  0mm W/m2
12:09 103.8 °F /  39.9 °C 50.4 °F /  10.2 °C 30.05in /  1017.5hPa West 4.1mph /  6.6km/h 10mph /  16.1km/h 17% 0.00in /  0mm W/m2
12:14 103.8 °F /  39.9 °C 50.7 °F /  10.4 °C 30.05in /  1017.5hPa West 3.6mph /  5.8km/h 10.4mph /  16.7km/h 17.2% 0.00in /  0mm W/m2
12:19 104.4 °F /  40.2 °C 51.2 °F /  10.7 °C 30.05in /  1017.5hPa NW 3.4mph /  5.5km/h 11.5mph /  18.5km/h 17.2% 0.00in /  0mm W/m2
12:24 104.5 °F /  40.3 °C 51 °F /  10.6 °C 30.05in /  1017.5hPa NNE 6.5mph /  10.5km/h 16.1mph /  25.9km/h 17% 0.00in /  0mm W/m2
12:29 103.9 °F /  39.9 °C 50.5 °F /  10.3 °C 30.05in /  1017.5hPa North 5mph /  8km/h 16mph /  25.7km/h 17% 0.00in /  0mm W/m2
12:34 104.2 °F /  40.1 °C 51.7 °F /  10.9 °C 30.05in /  1017.5hPa NW 3.6mph /  5.8km/h 12mph /  19.3km/h 17.7% 0.00in /  0mm W/m2
12:39 104.3 °F /  40.2 °C 50.8 °F /  10.4 °C 30.05in /  1017.5hPa WNW 5mph /  8km/h 14mph /  22.5km/h 17% 0.00in /  0mm W/m2
12:44 104.3 °F /  40.2 °C 50.8 °F /  10.4 °C 30.05in /  1017.5hPa WNW 6mph /  9.7km/h 15mph /  24.1km/h 17% 0.00in /  0mm W/m2
12:49 104.6 °F /  40.3 °C 50.6 °F /  10.3 °C 30.04in /  1017.2hPa NW 6.2mph /  10km/h 15mph /  24.1km/h 16.7% 0.00in /  0mm W/m2
12:54 104.5 °F /  40.3 °C 49.7 °F /  9.8 °C 30.04in /  1017.2hPa WNW 6.9mph /  11.1km/h 16.1mph /  25.9km/h 16.2% 0.00in /  0mm W/m2
12:59 104.3 °F /  40.2 °C 50.7 °F /  10.4 °C 30.05in /  1017.5hPa WNW 6mph /  9.7km/h 16mph /  25.7km/h 16.9% 0.00in /  0mm W/m2
13:04 103.6 °F /  39.8 °C 50.2 °F /  10.1 °C 30.05in /  1017.5hPa WNW 8.3mph /  13.4km/h 16.1mph /  25.9km/h 17% 0.00in /  0mm W/m2
13:09 102.9 °F /  39.4 °C 49.7 °F /  9.8 °C 30.05in /  1017.5hPa NNW 6.5mph /  10.5km/h 16mph /  25.7km/h 17% 0.00in /  0mm W/m2
13:14 102.5 °F /  39.2 °C 50.4 °F /  10.2 °C 30.05in /  1017.5hPa West 4.3mph /  6.9km/h 13mph /  20.9km/h 17.7% 0.00in /  0mm W/m2
13:19 102.4 °F /  39.1 °C 50.6 °F /  10.3 °C 30.05in /  1017.5hPa WNW 5.2mph /  8.4km/h 10mph /  16.1km/h 17.9% 0.00in /  0mm W/m2
13:24 102.6 °F /  39.2 °C 50.9 °F /  10.5 °C 30.05in /  1017.5hPa West 2.9mph /  4.7km/h 9.2mph /  14.8km/h 17.9% 0.00in /  0mm W/m2
13:29 103.3 °F /  39.6 °C 50.2 °F /  10.1 °C 30.05in /  1017.5hPa NNW 5.1mph /  8.2km/h 11.5mph /  18.5km/h 17.1% 0.00in /  0mm W/m2
13:34 103.9 °F /  39.9 °C 50.5 °F /  10.3 °C 30.05in /  1017.5hPa West 7.3mph /  11.7km/h 13mph /  20.9km/h 17% 0.00in /  0mm W/m2
13:39 104 °F /  40 °C 49.8 °F /  9.9 °C 30.05in /  1017.5hPa West 5.7mph /  9.2km/h 14mph /  22.5km/h 16.5% 0.00in /  0mm W/m2
13:44 104.3 °F /  40.2 °C 48.8 °F /  9.3 °C 30.05in /  1017.5hPa West 7.1mph /  11.4km/h 13mph /  20.9km/h 15.8% 0.00in /  0mm W/m2
13:49 104.3 °F /  40.2 °C 48.8 °F /  9.3 °C 30.05in /  1017.5hPa West 6.8mph /  10.9km/h 13mph /  20.9km/h 15.8% 0.00in /  0mm W/m2
13:54 104.2 °F /  40.1 °C 49.1 °F /  9.5 °C 30.05in /  1017.5hPa West 9.5mph /  15.3km/h 18mph /  29km/h 16% 0.00in /  0mm W/m2
13:59 103.2 °F /  39.6 °C 49.5 °F /  9.7 °C 30.05in /  1017.5hPa WSW 10.8mph /  17.4km/h 20mph /  32.2km/h 16.7% 0.00in /  0mm W/m2
14:04 102.6 °F /  39.2 °C 49.5 °F /  9.7 °C 30.05in /  1017.5hPa WSW 10mph /  16.1km/h 20mph /  32.2km/h 17% 0.00in /  0mm W/m2
14:09 102.2 °F /  39 °C 50.5 °F /  10.3 °C 30.05in /  1017.5hPa WSW 8.8mph /  14.2km/h 17mph /  27.4km/h 17.9% 0.00in /  0mm W/m2
14:14 101.8 °F /  38.8 °C 50.8 °F /  10.4 °C 30.06in /  1017.8hPa WSW 9.9mph /  15.9km/h 18.4mph /  29.6km/h 18.3% 0.00in /  0mm W/m2
14:19 101.2 °F /  38.4 °C 51.3 °F /  10.7 °C 30.06in /  1017.8hPa West 9.3mph /  15km/h 18mph /  29km/h 19% 0.00in /  0mm W/m2
14:24 100.8 °F /  38.2 °C 51 °F /  10.6 °C 30.05in /  1017.5hPa WSW 9.2mph /  14.8km/h 16mph /  25.7km/h 19% 0.00in /  0mm W/m2
14:29 100.6 °F /  38.1 °C 50.8 °F /  10.4 °C 30.05in /  1017.5hPa WSW 7.9mph /  12.7km/h 15mph /  24.1km/h 19% 0.00in /  0mm W/m2
14:34 100.6 °F /  38.1 °C 51.1 °F /  10.6 °C 30.05in /  1017.5hPa WSW 6.5mph /  10.5km/h 15mph /  24.1km/h 19.2% 0.00in /  0mm W/m2
14:39 100.5 °F /  38.1 °C 51 °F /  10.6 °C 30.05in /  1017.5hPa WSW 8mph /  12.9km/h 15mph /  24.1km/h 19.2% 0.00in /  0mm W/m2
14:44 100.6 °F /  38.1 °C 51.4 °F /  10.8 °C 30.05in /  1017.5hPa WSW 5.9mph /  9.5km/h 14mph /  22.5km/h 19.5% 0.00in /  0mm W/m2
14:49 100.5 °F /  38.1 °C 52.2 °F /  11.2 °C 30.05in /  1017.5hPa WSW 5.4mph /  8.7km/h 12mph /  19.3km/h 20% 0.00in /  0mm W/m2
14:54 100.3 °F /  37.9 °C 52 °F /  11.1 °C 30.05in /  1017.5hPa WSW 5.5mph /  8.9km/h 10.4mph /  16.7km/h 20% 0.00in /  0mm W/m2
14:59 100.2 °F /  37.9 °C 51.9 °F /  11.1 °C 30.05in /  1017.5hPa WSW 6mph /  9.7km/h 10.4mph /  16.7km/h 20% 0.00in /  0mm W/m2
15:04 100.2 °F /  37.9 °C 51.9 °F /  11.1 °C 30.05in /  1017.5hPa WSW 4.7mph /  7.6km/h 10mph /  16.1km/h 20% 0.00in /  0mm W/m2
15:09 100.1 °F /  37.8 °C 51.8 °F /  11 °C 30.05in /  1017.5hPa WSW 4.1mph /  6.6km/h 9mph /  14.5km/h 20% 0.00in /  0mm W/m2
15:14 100 °F /  37.8 °C 51.7 °F /  10.9 °C 30.05in /  1017.5hPa WSW 4.7mph /  7.6km/h 9.2mph /  14.8km/h 20% 0.00in /  0mm W/m2
15:19 99.9 °F /  37.7 °C 51.7 °F /  10.9 °C 30.05in /  1017.5hPa WSW 3.5mph /  5.6km/h 9mph /  14.5km/h 20% 0.00in /  0mm W/m2
15:24 100.2 °F /  37.9 °C 51.9 °F /  11.1 °C 30.05in /  1017.5hPa West 3mph /  4.8km/h 8mph /  12.9km/h 20% 0.00in /  0mm W/m2
15:29 100.6 °F /  38.1 °C 51.6 °F /  10.9 °C 30.05in /  1017.5hPa WSW 3.7mph /  6km/h 8.1mph /  13km/h 19.6% 0.00in /  0mm W/m2
15:34 100.9 °F /  38.3 °C 51.1 °F /  10.6 °C 30.04in /  1017.2hPa West 2.9mph /  4.7km/h 8.1mph /  13km/h 19% 0.00in /  0mm W/m2
15:39 101 °F /  38.3 °C 51.2 °F /  10.7 °C 30.05in /  1017.5hPa WSW 3.1mph /  5km/h 8mph /  12.9km/h 19% 0.00in /  0mm W/m2
15:44 101 °F /  38.3 °C 51.2 °F /  10.7 °C 30.05in /  1017.5hPa West 4mph /  6.4km/h 10.4mph /  16.7km/h 19% 0.00in /  0mm W/m2
15:49 100.9 °F /  38.3 °C 50.7 °F /  10.4 °C 30.05in /  1017.5hPa West 3mph /  4.8km/h 10mph /  16.1km/h 18.7% 0.00in /  0mm W/m2
15:54 100.9 °F /  38.3 °C 52.1 °F /  11.2 °C 30.04in /  1017.2hPa WNW 3.7mph /  6km/h 8.1mph /  13km/h 19.7% 0.00in /  0mm W/m2
15:59 100 °F /  37.8 °C 55.2 °F /  12.9 °C 30.05in /  1017.5hPa NNE 2.7mph /  4.3km/h 8mph /  12.9km/h 22.7% 0.00in /  0mm W/m2
16:00 99.5 °F /  37.5 °C 56 °F /  13.3 °C 30.06in /  1017.8hPa WSW 1.9mph /  3.1km/h 6mph /  9.7km/h 23.7% 0.00in /  0mm W/m2
17:59 96.8 °F /  36 °C 55.2 °F /  12.9 °C 30.05in /  1017.5hPa Calm   13mph /  20.9km/h 25% 0.00in /  0mm W/m2
18:04 96.7 °F /  35.9 °C 55.8 °F /  13.2 °C 30.05in /  1017.5hPa NE 0.4mph /  0.6km/h 13mph /  20.9km/h 25.6% 0.00in /  0mm W/m2
18:09 96.8 °F /  36 °C 55.8 °F /  13.2 °C 30.05in /  1017.5hPa WSW 0.8mph /  1.3km/h 2.3mph /  3.7km/h 25.6% 0.00in /  0mm W/m2
18:14 96.9 °F /  36.1 °C 56.8 °F /  13.8 °C 30.04in /  1017.2hPa SE 0.8mph /  1.3km/h 2.3mph /  3.7km/h 26.4% 0.00in /  0mm W/m2
18:19 97.2 °F /  36.2 °C 55.1 °F /  12.8 °C 30.04in /  1017.2hPa SSE 1.9mph /  3.1km/h 6mph /  9.7km/h 24.6% 0.00in /  0mm W/m2
18:24 97.3 °F /  36.3 °C 55.4 °F /  13 °C 30.03in /  1016.8hPa SE 1.8mph /  2.9km/h 6mph /  9.7km/h 24.8% 0.00in /  0mm W/m2
18:29 97.5 °F /  36.4 °C 55.6 °F /  13.1 °C 30.04in /  1017.2hPa WSW 1.6mph /  2.6km/h 6mph /  9.7km/h 24.9% 0.00in /  0mm W/m2
18:34 97.7 °F /  36.5 °C 54.6 °F /  12.6 °C 30.04in /  1017.2hPa WNW 0.8mph /  1.3km/h 4mph /  6.4km/h 23.8% 0.00in /  0mm W/m2
18:39 98.1 °F /  36.7 °C 51.5 °F /  10.8 °C 30.03in /  1016.8hPa WSW 3.2mph /  5.1km/h 10.4mph /  16.7km/h 21.1% 0.00in /  0mm W/m2
18:44 98 °F /  36.7 °C 49 °F /  9.4 °C 30.03in /  1016.8hPa West 4mph /  6.4km/h 10mph /  16.1km/h 19.2% 0.00in /  0mm W/m2
18:49 98 °F /  36.7 °C 48.7 °F /  9.3 °C 30.03in /  1016.8hPa NNE 2.5mph /  4km/h 8.1mph /  13km/h 19% 0.00in /  0mm W/m2
18:54 98 °F /  36.7 °C 48.7 °F /  9.3 °C 30.03in /  1016.8hPa NNE 1.8mph /  2.9km/h 8mph /  12.9km/h 19% 0.00in /  0mm W/m2
18:59 98 °F /  36.7 °C 48.7 °F /  9.3 °C 30.03in /  1016.8hPa NW 0.8mph /  1.3km/h 3.5mph /  5.6km/h 19% 0.00in /  0mm W/m2
19:04 97.9 °F /  36.6 °C 49 °F /  9.4 °C 30.04in /  1017.2hPa NW 1.1mph /  1.8km/h 4mph /  6.4km/h 19.3% 0.00in /  0mm W/m2
19:09 97.4 °F /  36.3 °C 53.7 °F /  12.1 °C 30.04in /  1017.2hPa NE 3.6mph /  5.8km/h 9mph /  14.5km/h 23.3% 0.00in /  0mm W/m2
19:14 96.5 °F /  35.8 °C 54.9 °F /  12.7 °C 30.04in /  1017.2hPa NE 2.7mph /  4.3km/h 9mph /  14.5km/h 25% 0.00in /  0mm W/m2
19:19 96 °F /  35.6 °C 55.1 °F /  12.8 °C 30.04in /  1017.2hPa NE 1.2mph /  1.9km/h 5mph /  8km/h 25.5% 0.00in /  0mm W/m2
19:24 95.9 °F /  35.5 °C 55.5 °F /  13.1 °C 30.04in /  1017.2hPa NE 1.4mph /  2.3km/h 5mph /  8km/h 26% 0.00in /  0mm W/m2
19:29 95.6 °F /  35.3 °C 55.3 °F /  12.9 °C 30.04in /  1017.2hPa NE 2.8mph /  4.5km/h 5mph /  8km/h 26% 0.00in /  0mm W/m2
19:34 95.4 °F /  35.2 °C 55.1 °F /  12.8 °C 30.04in /  1017.2hPa NE 2mph /  3.2km/h 4mph /  6.4km/h 26% 0.00in /  0mm W/m2
19:39 95.2 °F /  35.1 °C 54.9 °F /  12.7 °C 30.04in /  1017.2hPa NE 2.7mph /  4.3km/h 5mph /  8km/h 26% 0.00in /  0mm W/m2
19:44 95.1 °F /  35.1 °C 55.2 °F /  12.9 °C 30.04in /  1017.2hPa NE 0.6mph /  1km/h 5mph /  8km/h 26.4% 0.00in /  0mm W/m2
19:49 95 °F /  35 °C 55.7 °F /  13.2 °C 30.04in /  1017.2hPa NE 1.3mph /  2.1km/h 3.5mph /  5.6km/h 26.9% 0.00in /  0mm W/m2
19:54 94.8 °F /  34.9 °C 55.4 °F /  13 °C 30.04in /  1017.2hPa West 0.5mph /  0.8km/h 3mph /  4.8km/h 26.8% 0.00in /  0mm W/m2
19:59 94.3 °F /  34.6 °C 56.9 °F /  13.8 °C 30.05in /  1017.5hPa WSW 1mph /  1.6km/h 3.5mph /  5.6km/h 28.7% 0.00in /  0mm W/m2
20:04 93.3 °F /  34.1 °C 57.3 °F /  14.1 °C 30.05in /  1017.5hPa West 1.1mph /  1.8km/h 3mph /  4.8km/h 30% 0.00in /  0mm W/m2
20:09 92.9 °F /  33.8 °C 56.9 °F /  13.8 °C 30.05in /  1017.5hPa West 0.5mph /  0.8km/h 2.3mph /  3.7km/h 30% 0.00in /  0mm W/m2
20:14 92.6 °F /  33.7 °C 56.7 °F /  13.7 °C 30.05in /  1017.5hPa West 0.1mph /  0.2km/h 2mph /  3.2km/h 30% 0.00in /  0mm W/m2
20:19 92.4 °F /  33.6 °C 56.8 °F /  13.8 °C 30.05in /  1017.5hPa Calm   1mph /  1.6km/h 30.4% 0.00in /  0mm W/m2
20:24 91.9 °F /  33.3 °C 56.9 °F /  13.8 °C 30.05in /  1017.5hPa Calm     31% 0.00in /  0mm W/m2
20:29 91.2 °F /  32.9 °C 57 °F /  13.9 °C 30.05in /  1017.5hPa Calm     31.8% 0.00in /  0mm W/m2
20:34 90.6 °F /  32.6 °C 56.7 °F /  13.7 °C 30.05in /  1017.5hPa West 0.2mph /  0.3km/h 1.2mph /  1.9km/h 32% 0.00in /  0mm W/m2
20:39 90.5 °F /  32.5 °C 56.6 °F /  13.7 °C 30.06in /  1017.8hPa West 1.8mph /  2.9km/h 3.5mph /  5.6km/h 32% 0.00in /  0mm W/m2
20:44 90.6 °F /  32.6 °C 56.6 °F /  13.7 °C 30.06in /  1017.8hPa West 1.5mph /  2.4km/h 3.5mph /  5.6km/h 31.8% 0.00in /  0mm W/m2
20:49 90.4 °F /  32.4 °C 56.5 °F /  13.6 °C 30.06in /  1017.8hPa West 1.8mph /  2.9km/h 4mph /  6.4km/h 32% 0.00in /  0mm W/m2
20:54 90.1 °F /  32.3 °C 56.3 °F /  13.5 °C 30.06in /  1017.8hPa West 1.1mph /  1.8km/h 4mph /  6.4km/h 32% 0.00in /  0mm W/m2
20:59 89.5 °F /  31.9 °C 56.3 °F /  13.5 °C 30.06in /  1017.8hPa WSW 0.7mph /  1.1km/h 3mph /  4.8km/h 32.6% 0.00in /  0mm W/m2
21:04 89 °F /  31.7 °C 56.2 °F /  13.4 °C 30.06in /  1017.8hPa WSW 0.6mph /  1km/h 3mph /  4.8km/h 33% 0.00in /  0mm W/m2
21:09 88.5 °F /  31.4 °C 55.5 °F /  13.1 °C 30.06in /  1017.8hPa WSW 1.5mph /  2.4km/h 3.5mph /  5.6km/h 32.7% 0.00in /  0mm W/m2
21:14 88.2 °F /  31.2 °C 54.6 °F /  12.6 °C 30.06in /  1017.8hPa West 1.8mph /  2.9km/h 4mph /  6.4km/h 32% 0.00in /  0mm W/m2
21:19 88.1 °F /  31.2 °C 54.5 °F /  12.5 °C 30.06in /  1017.8hPa West 1.6mph /  2.6km/h 4mph /  6.4km/h 32% 0.00in /  0mm W/m2
21:24 88 °F /  31.1 °C 54.4 °F /  12.4 °C 30.06in /  1017.8hPa West 1.5mph /  2.4km/h 4mph /  6.4km/h 32% 0.00in /  0mm W/m2
21:29 88 °F /  31.1 °C 54.4 °F /  12.4 °C 30.06in /  1017.8hPa West 1.5mph /  2.4km/h 4mph /  6.4km/h 32% 0.00in /  0mm W/m2
21:34 88.1 °F /  31.2 °C 54.5 °F /  12.5 °C 30.07in /  1018.2hPa West 2.1mph /  3.4km/h 4mph /  6.4km/h 32% 0.00in /  0mm W/m2
21:39 88 °F /  31.1 °C 54.4 °F /  12.4 °C 30.07in /  1018.2hPa West 1.9mph /  3.1km/h 4mph /  6.4km/h 32% 0.00in /  0mm W/m2
21:44 87.9 °F /  31.1 °C 54.4 °F /  12.4 °C 30.07in /  1018.2hPa WSW 1.7mph /  2.7km/h 4mph /  6.4km/h 32% 0.00in /  0mm W/m2
21:49 87.6 °F /  30.9 °C 54.5 °F /  12.5 °C 30.06in /  1017.8hPa WSW 1.4mph /  2.3km/h 3.5mph /  5.6km/h 32.5% 0.00in /  0mm W/m2
21:54 87.5 °F /  30.8 °C 54.9 °F /  12.7 °C 30.06in /  1017.8hPa WSW 0.7mph /  1.1km/h 3mph /  4.8km/h 33% 0.00in /  0mm W/m2
21:59 87.3 °F /  30.7 °C 54.7 °F /  12.6 °C 30.06in /  1017.8hPa SW 0.8mph /  1.3km/h 2.3mph /  3.7km/h 33% 0.00in /  0mm W/m2
22:04 87 °F /  30.6 °C 54.6 °F /  12.6 °C 30.06in /  1017.8hPa WSW 0.5mph /  0.8km/h 3.5mph /  5.6km/h 33.3% 0.00in /  0mm W/m2
22:09 86.6 °F /  30.3 °C 54.9 °F /  12.7 °C 30.05in /  1017.5hPa Calm   3mph /  4.8km/h 34% 0.00in /  0mm W/m2
22:14 86.2 °F /  30.1 °C 54.7 °F /  12.6 °C 30.05in /  1017.5hPa Calm     34.2% 0.00in /  0mm W/m2
22:19 86.1 °F /  30.1 °C 55.2 °F /  12.9 °C 30.05in /  1017.5hPa SW 0.2mph /  0.3km/h 1.2mph /  1.9km/h 35% 0.00in /  0mm W/m2
22:24 86 °F /  30 °C 55.2 °F /  12.9 °C 30.05in /  1017.5hPa SW 0.8mph /  1.3km/h 2.3mph /  3.7km/h 35% 0.00in /  0mm W/m2
22:29 85.7 °F /  29.8 °C 55.4 °F /  13 °C 30.05in /  1017.5hPa SSW 0.3mph /  0.5km/h 2.3mph /  3.7km/h 35.6% 0.00in /  0mm W/m2
22:34 85.4 °F /  29.7 °C 55.4 °F /  13 °C 30.05in /  1017.5hPa SSE 0.4mph /  0.6km/h 2.3mph /  3.7km/h 36% 0.00in /  0mm W/m2
22:39 85.1 °F /  29.5 °C 55.4 °F /  13 °C 30.06in /  1017.8hPa SSW 0.6mph /  1km/h 2mph /  3.2km/h 36.4% 0.00in /  0mm W/m2
22:44 84.7 °F /  29.3 °C 55.5 °F /  13.1 °C 30.06in /  1017.8hPa SSW 1.2mph /  1.9km/h 2.3mph /  3.7km/h 37% 0.00in /  0mm W/m2
22:49 84.4 °F /  29.1 °C 55.5 °F /  13.1 °C 30.06in /  1017.8hPa South 0.4mph /  0.6km/h 2.3mph /  3.7km/h 37.3% 0.00in /  0mm W/m2
22:54 84.1 °F /  28.9 °C 55.7 °F /  13.2 °C 30.05in /  1017.5hPa Calm   2mph /  3.2km/h 38% 0.00in /  0mm W/m2
22:59 83.7 °F /  28.7 °C 55.4 °F /  13 °C 30.05in /  1017.5hPa South 0.1mph /  0.2km/h 1.2mph /  1.9km/h 38% 0.00in /  0mm W/m2
23:04 83.4 °F /  28.6 °C 55.7 °F /  13.2 °C 30.05in /  1017.5hPa SSW 0.2mph /  0.3km/h 2mph /  3.2km/h 38.8% 0.00in /  0mm W/m2
23:09 83.1 °F /  28.4 °C 55.8 °F /  13.2 °C 30.05in /  1017.5hPa SW 0.7mph /  1.1km/h 2.3mph /  3.7km/h 39.2% 0.00in /  0mm W/m2
23:14 82.6 °F /  28.1 °C 55.8 °F /  13.2 °C 30.05in /  1017.5hPa SW 1mph /  1.6km/h 2.3mph /  3.7km/h 39.9% 0.00in /  0mm W/m2
23:19 82.3 °F /  27.9 °C 55.7 °F /  13.2 °C 30.05in /  1017.5hPa SW 0.2mph /  0.3km/h 2mph /  3.2km/h 40.3% 0.00in /  0mm W/m2
23:24 82.3 °F /  27.9 °C 56 °F /  13.3 °C 30.04in /  1017.2hPa WSW 1mph /  1.6km/h 4mph /  6.4km/h 40.5% 0.00in /  0mm W/m2
23:29 82.4 °F /  28 °C 55.7 °F /  13.2 °C 30.04in /  1017.2hPa WSW 2.2mph /  3.5km/h 4mph /  6.4km/h 40% 0.00in /  0mm W/m2
23:34 81.9 °F /  27.7 °C 55.8 °F /  13.2 °C 30.04in /  1017.2hPa WSW 2.4mph /  3.9km/h 3.5mph /  5.6km/h 40.8% 0.00in /  0mm W/m2
23:39 81.4 °F /  27.4 °C 55.9 °F /  13.3 °C 30.04in /  1017.2hPa WSW 1.9mph /  3.1km/h 3.5mph /  5.6km/h 41.6% 0.00in /  0mm W/m2
23:44 81.3 °F /  27.4 °C 55.8 °F /  13.2 °C 30.04in /  1017.2hPa WSW 1.9mph /  3.1km/h 3.5mph /  5.6km/h 41.6% 0.00in /  0mm W/m2
23:49 81.8 °F /  27.7 °C 55.8 °F /  13.2 °C 30.04in /  1017.2hPa WSW 1.5mph /  2.4km/h 3.5mph /  5.6km/h 41% 0.00in /  0mm W/m2
23:54 82.1 °F /  27.8 °C 55.7 °F /  13.2 °C 30.04in /  1017.2hPa WSW 1.3mph /  2.1km/h 3.5mph /  5.6km/h 40.5% 0.00in /  0mm W/m2
23:59 83 °F /  28.3 °C 55.8 °F /  13.2 °C 30.04in /  1017.2hPa WSW 1.6mph /  2.6km/h 3.5mph /  5.6km/h 39.4% 0.00in /  0mm W/m2
Acquaviva delle Fonti, BA, Italia
Complimenti a Weather Underground - 3.25 mb